Time;durP1;ratioP1;P1;durP2;ratioP2;P2;SDS_P1;SDS_P2;PMS_P1;PMS_P2;Temp;Humidity;BMP_temperature;BMP_pressure;BME280_temperature;BME280_humidity;BME280_pressure;Samples;Min_cycle;Max_cycle;Signal;HPM_P1;HPM_P2
2023/09/29 00:00:14;;;;;;;3.20;2.90;;;21.80;99.90;;;;;;5043625;28;20460;-55
2023/09/29 00:02:41;;;;;;;5.57;3.97;;;21.80;99.90;;;;;;5056232;28;20448;-51
2023/09/29 00:05:11;;;;;;;3.63;3.33;;;21.90;99.90;;;;;;5057581;28;20483;-57
2023/09/29 00:07:38;;;;;;;3.77;3.20;;;21.80;99.90;;;;;;5058186;28;20467;-57
2023/09/29 00:10:08;;;;;;;4.13;3.83;;;21.80;99.90;;;;;;5055998;28;20718;-54
2023/09/29 00:12:35;;;;;;;3.80;3.50;;;21.80;99.90;;;;;;5057838;28;20456;-54
2023/09/29 00:15:04;;;;;;;3.43;3.23;;;21.90;99.90;;;;;;5057179;28;20496;-52
2023/09/29 00:17:31;;;;;;;3.95;3.60;;;21.80;99.90;;;;;;5055982;28;20576;-54
2023/09/29 00:19:57;;;;;;;3.10;2.80;;;21.80;99.90;;;;;;5058803;28;20213;-51
2023/09/29 00:22:24;;;;;;;4.30;2.80;;;21.80;99.90;;;;;;5059511;28;20460;-55
2023/09/29 00:24:51;;;;;;;4.00;3.70;;;21.80;99.90;;;;;;5061612;28;22322;-53
2023/09/29 00:27:18;;;;;;;3.70;3.40;;;21.80;99.90;;;;;;5057984;28;20514;-56
2023/09/29 00:29:44;;;;;;;2.53;2.33;;;21.70;99.90;;;;;;5052831;28;20704;-60
2023/09/29 00:32:12;;;;;;;3.30;3.00;;;21.70;99.90;;;;;;5052447;28;21227;-52
2023/09/29 00:34:39;;;;;;;4.17;3.77;;;21.80;99.90;;;;;;5055652;28;20471;-48
2023/09/29 00:37:06;;;;;;;4.03;3.63;;;21.90;99.90;;;;;;5058221;28;20460;-60
2023/09/29 00:39:33;;;;;;;4.70;3.53;;;21.70;99.90;;;;;;5058438;28;20451;-55
2023/09/29 00:41:59;;;;;;;3.93;3.63;;;21.80;99.90;;;;;;5056556;28;20463;-55
2023/09/29 00:44:26;;;;;;;3.50;3.20;;;21.80;99.90;;;;;;5058821;28;20490;-48
2023/09/29 00:46:56;;;;;;;3.63;3.33;;;21.80;99.90;;;;;;5059055;28;20460;-51
2023/09/29 00:49:24;;;;;;;3.67;3.30;;;21.80;99.90;;;;;;5056099;28;20462;-54
2023/09/29 00:51:52;;;;;;;3.53;3.23;;;21.70;99.90;;;;;;5058318;28;20459;-47
2023/09/29 00:54:18;;;;;;;3.63;3.33;;;21.80;99.90;;;;;;5056032;28;20963;-53
2023/09/29 00:56:45;;;;;;;3.53;3.23;;;21.80;99.90;;;;;;5055893;28;20462;-51
2023/09/29 00:59:12;;;;;;;3.67;3.37;;;21.80;99.90;;;;;;5057506;28;20916;-47
2023/09/29 01:01:39;;;;;;;3.43;3.13;;;21.80;99.90;;;;;;5055019;28;20808;-50
2023/09/29 01:04:10;;;;;;;3.13;2.93;;;21.80;99.90;;;;;;5055933;28;20637;-49
2023/09/29 01:06:38;;;;;;;3.10;2.90;;;21.80;99.90;;;;;;5059474;28;20540;-49
2023/09/29 01:09:06;;;;;;;3.00;2.70;;;21.70;99.90;;;;;;5060071;28;20700;-56
2023/09/29 01:11:42;;;;;;;3.30;2.93;;;21.70;99.90;;;;;;5058599;28;20656;-51
2023/09/29 01:14:11;;;;;;;3.50;3.20;;;21.80;99.90;;;;;;5055390;28;20467;-52
2023/09/29 01:16:38;;;;;;;3.20;3.00;;;21.70;99.90;;;;;;5057891;28;20799;-55
2023/09/29 01:19:12;;;;;;;3.00;2.70;;;21.70;99.90;;;;;;5055575;28;20467;-60
2023/09/29 01:21:40;;;;;;;3.30;3.00;;;21.80;99.90;;;;;;5054386;28;23968;-51
2023/09/29 01:24:09;;;;;;;4.17;3.50;;;21.80;99.90;;;;;;5056260;28;21050;-52
2023/09/29 01:26:35;;;;;;;3.37;3.07;;;21.70;99.90;;;;;;5058234;28;20471;-56
2023/09/29 01:29:02;;;;;;;4.10;3.00;;;21.70;99.90;;;;;;5061024;28;20460;-54
2023/09/29 01:31:33;;;;;;;3.30;3.00;;;21.80;99.90;;;;;;5060004;28;20486;-55
2023/09/29 01:34:01;;;;;;;3.17;2.87;;;21.70;99.90;;;;;;5058939;28;20527;-61
2023/09/29 01:36:29;;;;;;;3.80;3.50;;;21.80;99.90;;;;;;5060586;28;20464;-49
2023/09/29 01:42:20;;;;;;;3.10;2.80;;;21.70;99.90;;;;;;5043612;28;20764;-52
2023/09/29 01:44:47;;;;;;;2.80;2.60;;;21.60;99.90;;;;;;5056859;28;20472;-48
2023/09/29 01:47:13;;;;;;;3.63;3.33;;;21.70;99.90;;;;;;5059519;28;20891;-51
2023/09/29 01:49:40;;;;;;;3.07;2.87;;;21.80;99.90;;;;;;5060171;28;21219;-53
2023/09/29 01:52:07;;;;;;;3.43;3.13;;;21.70;99.90;;;;;;5058281;28;21092;-52
2023/09/29 01:54:36;;;;;;;2.50;2.30;;;21.70;99.90;;;;;;5055223;28;20490;-56
2023/09/29 01:57:05;;;;;;;3.60;3.30;;;21.70;99.90;;;;;;5052554;28;20468;-56
2023/09/29 01:59:33;;;;;;;2.73;2.53;;;21.70;99.90;;;;;;5061503;28;20802;-57
2023/09/29 02:01:59;;;;;;;3.13;2.87;;;21.70;99.90;;;;;;5061468;28;20466;-56
2023/09/29 02:04:26;;;;;;;3.47;3.20;;;21.70;99.90;;;;;;5060328;28;20482;-52
2023/09/29 02:06:53;;;;;;;3.00;2.70;;;21.60;99.90;;;;;;5057103;28;20465;-57
2023/09/29 02:09:20;;;;;;;2.93;2.73;;;21.70;99.90;;;;;;5056643;28;21093;-49
2023/09/29 02:11:48;;;;;;;3.53;2.27;;;21.70;99.90;;;;;;5059681;28;20459;-57
2023/09/29 02:14:14;;;;;;;3.87;2.97;;;21.70;99.90;;;;;;5059215;28;20463;-53
2023/09/29 02:16:42;;;;;;;2.60;2.40;;;21.70;99.90;;;;;;5061109;28;20794;-55
2023/09/29 02:19:10;;;;;;;3.10;2.80;;;21.60;99.90;;;;;;5060883;28;20459;-57
2023/09/29 02:21:36;;;;;;;3.03;2.83;;;21.60;99.90;;;;;;5062676;28;20503;-51
2023/09/29 02:24:04;;;;;;;3.13;2.87;;;21.70;99.90;;;;;;5061842;28;20943;-52
2023/09/29 02:26:30;;;;;;;2.77;2.57;;;21.70;99.90;;;;;;5060643;28;21264;-54
2023/09/29 02:28:57;;;;;;;2.30;2.10;;;21.80;99.90;;;;;;5060817;28;20459;-49
2023/09/29 02:31:26;;;;;;;3.00;2.80;;;21.70;99.90;;;;;;5061307;28;20464;-51
2023/09/29 02:33:54;;;;;;;3.17;2.87;;;21.60;99.90;;;;;;5060139;28;21089;-49
2023/09/29 02:36:21;;;;;;;3.23;2.93;;;21.70;99.90;;;;;;5060516;28;20964;-54
2023/09/29 02:38:48;;;;;;;2.40;2.20;;;21.70;99.90;;;;;;5061198;28;20673;-50
2023/09/29 02:41:15;;;;;;;3.20;2.90;;;21.60;99.90;;;;;;5061045;28;20784;-50
2023/09/29 02:43:42;;;;;;;2.87;2.67;;;21.70;99.90;;;;;;5060927;28;21030;-50
2023/09/29 02:46:15;;;;;;;2.70;2.50;;;21.70;99.90;;;;;;5057473;28;20855;-51
2023/09/29 02:48:42;;;;;;;3.10;2.90;;;21.60;99.90;;;;;;5061079;28;20538;-52
2023/09/29 02:51:17;;;;;;;3.50;2.43;;;21.60;99.90;;;;;;5064071;28;20502;-50
2023/09/29 02:53:44;;;;;;;2.87;2.57;;;21.60;99.90;;;;;;5063985;28;20452;-56
2023/09/29 02:56:11;;;;;;;2.37;2.17;;;21.70;99.90;;;;;;5059014;28;20455;-54
2023/09/29 02:58:39;;;;;;;3.07;2.77;;;21.70;99.90;;;;;;5064404;28;20462;-54
2023/09/29 03:01:07;;;;;;;2.53;2.33;;;21.60;99.90;;;;;;5061972;28;20447;-50
2023/09/29 03:03:34;;;;;;;2.70;2.50;;;21.50;99.90;;;;;;5058527;28;20458;-52
2023/09/29 03:06:01;;;;;;;2.60;2.40;;;21.60;99.90;;;;;;5058704;28;20479;-51
2023/09/29 03:08:29;;;;;;;3.10;1.93;;;21.60;99.90;;;;;;5059752;28;20462;-52
2023/09/29 03:10:56;;;;;;;2.60;2.40;;;21.60;99.90;;;;;;5058521;28;20992;-51
2023/09/29 03:13:22;;;;;;;2.50;2.30;;;21.60;99.90;;;;;;5057807;28;20463;-53
2023/09/29 03:15:51;;;;;;;2.30;2.10;;;21.60;99.90;;;;;;5059689;28;20456;-52
2023/09/29 03:18:18;;;;;;;2.20;2.00;;;21.60;99.90;;;;;;5060322;28;20460;-53
2023/09/29 03:20:43;;;;;;;2.33;2.13;;;21.60;99.90;;;;;;5060101;28;20478;-54
2023/09/29 03:23:10;;;;;;;2.83;2.40;;;21.60;99.90;;;;;;5057605;28;20460;-55
2023/09/29 03:25:38;;;;;;;2.90;2.60;;;21.60;99.90;;;;;;5060509;28;20224;-51
2023/09/29 03:28:06;;;;;;;2.63;2.33;;;21.60;99.90;;;;;;5058915;28;20891;-55
2023/09/29 03:30:32;;;;;;;2.63;2.43;;;21.60;99.90;;;;;;5060991;28;21910;-52
2023/09/29 03:32:59;;;;;;;4.00;2.57;;;21.60;99.90;;;;;;5060575;28;20460;-51
2023/09/29 03:35:26;;;;;;;3.03;2.77;;;21.60;99.90;;;;;;5060558;28;20956;-53
2023/09/29 03:37:53;;;;;;;2.77;2.57;;;21.50;99.90;;;;;;5058458;28;20463;-53
2023/09/29 03:40:19;;;;;;;2.50;2.30;;;21.60;99.90;;;;;;5060355;28;20806;-47
2023/09/29 03:42:47;;;;;;;2.90;2.60;;;21.50;99.90;;;;;;5059156;28;20464;-51
2023/09/29 03:45:14;;;;;;;3.00;2.80;;;21.60;99.90;;;;;;5059470;28;20507;-50
2023/09/29 03:47:41;;;;;;;2.43;2.10;;;21.50;99.90;;;;;;5061760;28;20472;-55
2023/09/29 03:50:10;;;;;;;2.60;2.40;;;21.70;99.90;;;;;;5059454;28;20453;-54
2023/09/29 03:52:37;;;;;;;2.57;2.37;;;21.60;99.90;;;;;;5055994;28;20455;-54
2023/09/29 03:55:04;;;;;;;2.13;1.93;;;21.60;99.90;;;;;;5054879;28;20577;-60
2023/09/29 03:57:31;;;;;;;2.57;2.17;;;21.50;99.90;;;;;;5057449;28;20456;-55
2023/09/29 03:59:59;;;;;;;2.43;2.23;;;21.60;99.90;;;;;;5056979;28;20467;-57
2023/09/29 04:02:26;;;;;;;2.97;2.77;;;21.50;99.90;;;;;;5055572;28;20448;-55
2023/09/29 04:04:53;;;;;;;3.07;2.77;;;21.60;99.90;;;;;;5058740;28;20951;-53
2023/09/29 04:07:20;;;;;;;3.17;2.90;;;21.50;99.90;;;;;;5058320;28;20457;-54
2023/09/29 04:09:47;;;;;;;2.80;2.60;;;21.60;99.90;;;;;;5058749;28;20318;-55
2023/09/29 04:12:13;;;;;;;2.67;2.40;;;21.60;99.90;;;;;;5058105;28;20467;-51
2023/09/29 04:14:40;;;;;;;2.40;2.20;;;21.60;99.90;;;;;;5058856;28;20225;-53
2023/09/29 04:17:08;;;;;;;2.93;2.73;;;21.60;99.90;;;;;;5057898;28;20449;-51
2023/09/29 04:19:35;;;;;;;2.40;2.20;;;21.60;99.90;;;;;;5057928;28;20460;-54
2023/09/29 04:22:02;;;;;;;3.17;2.93;;;21.50;99.90;;;;;;5055453;28;21215;-49
2023/09/29 04:24:29;;;;;;;2.50;2.30;;;21.60;99.90;;;;;;5056248;28;20454;-54
2023/09/29 04:26:55;;;;;;;3.00;2.37;;;21.60;99.90;;;;;;5052141;28;20491;-49
2023/09/29 04:29:22;;;;;;;2.37;2.17;;;21.60;99.90;;;;;;5056375;28;20461;-57
2023/09/29 04:31:49;;;;;;;2.50;2.30;;;21.50;99.90;;;;;;5061168;28;20448;-52
2023/09/29 04:34:17;;;;;;;2.60;2.40;;;21.60;99.90;;;;;;5058342;28;20197;-49
2023/09/29 04:36:44;;;;;;;2.40;2.20;;;21.50;99.90;;;;;;5059796;28;20473;-49
2023/09/29 04:39:10;;;;;;;2.63;2.23;;;21.50;99.90;;;;;;5061349;28;20463;-55
2023/09/29 04:41:37;;;;;;;2.63;2.43;;;21.60;99.90;;;;;;5059506;28;20476;-52
2023/09/29 04:44:05;;;;;;;2.17;1.97;;;21.50;99.90;;;;;;5063095;28;21755;-52
2023/09/29 04:46:32;;;;;;;2.07;1.87;;;21.50;99.90;;;;;;5058209;28;20483;-58
2023/09/29 04:48:58;;;;;;;2.27;2.10;;;21.50;99.90;;;;;;5061977;28;20495;-46
2023/09/29 04:51:26;;;;;;;2.50;2.30;;;21.60;99.90;;;;;;5057378;28;20462;-54
2023/09/29 04:53:53;;;;;;;2.13;2.03;;;21.50;99.90;;;;;;5057543;28;20542;-55
2023/09/29 04:56:20;;;;;;;2.17;1.97;;;21.50;99.90;;;;;;5053590;28;20459;-60
2023/09/29 04:58:46;;;;;;;2.67;2.20;;;21.60;99.90;;;;;;5058594;28;20823;-48
2023/09/29 05:01:17;;;;;;;2.60;2.30;;;21.50;99.90;;;;;;5056967;28;20456;-53
2023/09/29 05:03:44;;;;;;;2.57;2.37;;;21.60;99.90;;;;;;5063518;28;20451;-51
2023/09/29 05:06:11;;;;;;;2.80;2.60;;;21.60;99.90;;;;;;5062780;28;20475;-44
2023/09/29 05:08:39;;;;;;;2.37;2.17;;;21.60;99.90;;;;;;5064057;28;20458;-51
2023/09/29 05:11:05;;;;;;;2.73;2.47;;;21.50;99.90;;;;;;5062784;28;20463;-56
2023/09/29 05:13:33;;;;;;;2.30;2.10;;;21.50;99.90;;;;;;5062312;28;20459;-48
2023/09/29 05:16:00;;;;;;;2.37;2.17;;;21.60;99.90;;;;;;5060616;28;20524;-56
2023/09/29 05:18:27;;;;;;;2.70;2.50;;;21.50;99.90;;;;;;5065410;28;20470;-47
2023/09/29 05:20:54;;;;;;;2.30;2.10;;;21.50;99.90;;;;;;5061750;28;20459;-57
2023/09/29 05:23:20;;;;;;;2.70;2.50;;;21.50;99.90;;;;;;5063982;28;20574;-52
2023/09/29 05:25:49;;;;;;;2.73;1.90;;;21.50;99.90;;;;;;5064738;28;20482;-57
2023/09/29 05:28:15;;;;;;;2.60;2.40;;;21.50;99.90;;;;;;5062475;28;20463;-56
2023/09/29 05:30:53;;;;;;;2.50;2.30;;;21.50;99.90;;;;;;5061468;28;20460;-53
2023/09/29 05:33:19;;;;;;;2.43;2.23;;;21.60;99.90;;;;;;5063370;28;20456;-54
2023/09/29 05:35:46;;;;;;;2.23;2.03;;;21.50;99.90;;;;;;5061870;28;20471;-56
2023/09/29 05:38:14;;;;;;;2.30;2.10;;;21.50;99.90;;;;;;5056816;28;20577;-56
2023/09/29 05:40:40;;;;;;;2.83;2.63;;;21.60;99.90;;;;;;5063533;28;20443;-56
2023/09/29 05:43:10;;;;;;;2.67;2.47;;;21.50;99.90;;;;;;5057231;28;20460;-50
2023/09/29 05:45:36;;;;;;;2.27;2.07;;;21.50;99.90;;;;;;5060787;28;20483;-55
2023/09/29 05:48:04;;;;;;;2.50;2.30;;;21.50;99.90;;;;;;5058374;28;20466;-52
2023/09/29 05:50:31;;;;;;;2.27;2.07;;;21.50;99.90;;;;;;5058981;28;20456;-59
2023/09/29 05:52:57;;;;;;;2.67;2.47;;;21.50;99.90;;;;;;5060230;28;20463;-48
2023/09/29 05:55:24;;;;;;;1.90;1.80;;;21.50;99.90;;;;;;5058895;28;21150;-52
2023/09/29 05:57:51;;;;;;;2.40;2.17;;;21.50;99.90;;;;;;5059019;28;20755;-50
2023/09/29 06:00:20;;;;;;;2.15;2.05;;;21.50;99.90;;;;;;5058754;28;20460;-51
2023/09/29 06:02:48;;;;;;;2.13;1.93;;;21.50;99.90;;;;;;5061994;28;20193;-44
2023/09/29 06:05:15;;;;;;;2.20;1.80;;;21.50;99.90;;;;;;5059858;28;20462;-50
2023/09/29 06:07:41;;;;;;;2.13;1.93;;;21.50;99.90;;;;;;5059192;28;20467;-51
2023/09/29 06:10:09;;;;;;;2.90;2.70;;;21.50;99.90;;;;;;5057444;28;20473;-53
2023/09/29 06:12:36;;;;;;;2.10;1.90;;;21.50;99.90;;;;;;5060852;28;20462;-44
2023/09/29 06:15:03;;;;;;;1.90;1.70;;;21.40;99.90;;;;;;5060720;28;20463;-54
2023/09/29 06:17:32;;;;;;;2.23;2.03;;;21.50;99.90;;;;;;5059835;28;20459;-55
2023/09/29 06:19:58;;;;;;;2.40;2.20;;;21.50;99.90;;;;;;5056153;28;20471;-47
2023/09/29 06:22:25;;;;;;;2.50;2.30;;;21.50;99.90;;;;;;5058339;28;21576;-55
2023/09/29 06:24:52;;;;;;;2.17;2.07;;;21.50;99.90;;;;;;5061850;28;20974;-48
2023/09/29 06:27:19;;;;;;;2.60;2.40;;;21.50;99.90;;;;;;5061320;28;20894;-49
2023/09/29 06:29:50;;;;;;;2.40;2.10;;;21.40;99.90;;;;;;5063754;28;20456;-50
2023/09/29 06:32:16;;;;;;;3.07;2.67;;;21.50;99.90;;;;;;5058635;28;20475;-55
2023/09/29 06:34:45;;;;;;;2.40;2.20;;;21.50;99.90;;;;;;5063612;28;20467;-57
2023/09/29 06:37:12;;;;;;;3.20;2.90;;;21.50;99.90;;;;;;5058964;28;20954;-55
2023/09/29 06:39:39;;;;;;;2.90;2.60;;;21.50;99.90;;;;;;5062089;28;20485;-54
2023/09/29 06:42:07;;;;;;;2.40;2.20;;;21.50;99.90;;;;;;5061612;28;20442;-50
2023/09/29 06:44:33;;;;;;;3.07;2.80;;;21.50;99.90;;;;;;5062619;28;20451;-48
2023/09/29 06:47:00;;;;;;;2.40;2.20;;;21.50;99.90;;;;;;5059543;28;21000;-55
2023/09/29 06:49:27;;;;;;;2.50;2.30;;;21.50;99.90;;;;;;5060588;28;20460;-52
2023/09/29 06:51:55;;;;;;;2.30;2.10;;;21.50;99.90;;;;;;5060280;28;20459;-52
2023/09/29 06:54:22;;;;;;;3.57;2.23;;;21.50;99.90;;;;;;5058724;28;20470;-50
2023/09/29 06:56:48;;;;;;;2.97;2.77;;;21.50;99.90;;;;;;5059125;28;20472;-56
2023/09/29 06:59:15;;;;;;;2.10;1.90;;;21.50;99.90;;;;;;5061755;28;21343;-50
2023/09/29 07:01:42;;;;;;;2.63;2.43;;;21.50;99.90;;;;;;5062575;28;20470;-54
2023/09/29 07:04:10;;;;;;;1.97;1.87;;;21.50;99.90;;;;;;5061177;28;20775;-57
2023/09/29 07:06:36;;;;;;;1.93;1.83;;;21.50;99.90;;;;;;5059258;28;21012;-57
2023/09/29 07:09:06;;;;;;;2.30;2.10;;;21.50;99.90;;;;;;5060575;28;20471;-57
2023/09/29 07:11:33;;;;;;;2.20;2.00;;;21.50;99.90;;;;;;5057649;28;20460;-60
2023/09/29 07:14:00;;;;;;;1.97;1.77;;;21.50;99.90;;;;;;5060426;28;20483;-47
2023/09/29 07:16:27;;;;;;;1.90;1.80;;;21.50;99.90;;;;;;5054147;28;21101;-52
2023/09/29 07:18:53;;;;;;;2.00;1.80;;;21.40;99.90;;;;;;5059903;28;21481;-54
2023/09/29 07:21:20;;;;;;;1.97;1.87;;;21.40;99.90;;;;;;5055050;28;20456;-57
2023/09/29 07:23:47;;;;;;;2.40;2.20;;;21.50;99.90;;;;;;5058600;28;20471;-50
2023/09/29 07:26:15;;;;;;;2.30;2.10;;;21.60;99.90;;;;;;5057106;28;20580;-50
2023/09/29 07:28:42;;;;;;;2.23;2.03;;;21.60;99.90;;;;;;5059689;28;20975;-57
2023/09/29 07:31:08;;;;;;;2.13;1.93;;;21.50;99.90;;;;;;5056478;28;20465;-60
2023/09/29 07:33:35;;;;;;;2.23;2.00;;;21.50;99.90;;;;;;5056392;28;20469;-50
2023/09/29 07:36:02;;;;;;;2.43;2.23;;;21.50;99.90;;;;;;5055052;28;20566;-58
2023/09/29 07:38:29;;;;;;;1.97;1.80;;;21.50;99.90;;;;;;5056548;28;22150;-56
2023/09/29 07:40:55;;;;;;;2.40;2.03;;;21.50;99.90;;;;;;5058844;28;20460;-54
2023/09/29 07:43:24;;;;;;;2.33;2.13;;;21.50;99.90;;;;;;5052321;28;20470;-54
2023/09/29 07:45:51;;;;;;;2.83;2.53;;;21.40;99.90;;;;;;5057009;28;20844;-51
2023/09/29 07:48:17;;;;;;;2.10;2.00;;;21.50;99.90;;;;;;5057591;28;20467;-55
2023/09/29 07:50:44;;;;;;;2.00;1.80;;;21.60;99.90;;;;;;5051282;28;20851;-46
2023/09/29 07:53:11;;;;;;;2.33;2.13;;;21.50;99.90;;;;;;5053360;28;20467;-55
2023/09/29 07:55:38;;;;;;;2.20;2.07;;;21.40;99.90;;;;;;5055876;28;20907;-49
2023/09/29 07:58:06;;;;;;;2.40;2.20;;;21.40;99.90;;;;;;5055529;28;20452;-54
2023/09/29 08:00:34;;;;;;;1.80;1.70;;;21.50;99.90;;;;;;5053999;28;20822;-49
2023/09/29 08:03:00;;;;;;;2.00;1.80;;;21.50;99.90;;;;;;5054433;28;20456;-50
2023/09/29 08:05:27;;;;;;;2.40;2.20;;;21.50;99.90;;;;;;5053945;28;20458;-52
2023/09/29 08:07:54;;;;;;;1.83;1.60;;;21.50;99.90;;;;;;5059165;28;20479;-58
2023/09/29 08:10:21;;;;;;;2.13;1.97;;;21.40;99.90;;;;;;5051956;28;20455;-50
2023/09/29 08:12:47;;;;;;;2.07;1.87;;;21.50;99.90;;;;;;5054595;28;20483;-57
2023/09/29 08:15:14;;;;;;;2.67;2.47;;;21.50;99.90;;;;;;5049174;28;20472;-58
2023/09/29 08:17:43;;;;;;;1.90;1.80;;;21.50;99.90;;;;;;5053253;28;21112;-50
2023/09/29 08:20:12;;;;;;;2.13;1.93;;;21.50;99.90;;;;;;5054960;28;21907;-47
2023/09/29 08:22:39;;;;;;;4.13;2.30;;;21.50;99.90;;;;;;5052544;28;20864;-47
2023/09/29 08:25:07;;;;;;;2.67;2.47;;;21.40;99.90;;;;;;5057779;28;20457;-51
2023/09/29 08:27:34;;;;;;;3.57;3.27;;;21.50;99.90;;;;;;5055799;28;20469;-55
2023/09/29 08:30:01;;;;;;;5.80;2.70;;;21.60;99.90;;;;;;5055988;28;20455;-56
2023/09/29 08:32:28;;;;;;;3.00;2.30;;;21.50;99.90;;;;;;5051816;28;20824;-52
2023/09/29 08:34:56;;;;;;;6.57;2.50;;;21.60;99.90;;;;;;5057017;28;20643;-45
2023/09/29 08:37:23;;;;;;;3.57;2.70;;;21.60;99.90;;;;;;5053472;28;20963;-47
2023/09/29 08:39:50;;;;;;;6.07;2.37;;;21.60;99.90;;;;;;5051862;28;20462;-51
2023/09/29 08:42:26;;;;;;;2.77;2.57;;;21.60;99.90;;;;;;5051629;28;20452;-55
2023/09/29 08:44:55;;;;;;;3.33;2.93;;;21.60;99.90;;;;;;5053586;28;20801;-52
2023/09/29 08:47:28;;;;;;;4.43;2.60;;;21.70;99.90;;;;;;5055731;28;20475;-53
2023/09/29 08:49:58;;;;;;;3.07;2.33;;;21.70;99.90;;;;;;5058060;28;21042;-51
2023/09/29 08:52:27;;;;;;;5.50;3.00;;;21.70;99.90;;;;;;5057480;28;21321;-55
2023/09/29 08:54:55;;;;;;;3.23;2.33;;;21.60;99.90;;;;;;5058648;28;20490;-54
2023/09/29 08:57:23;;;;;;;3.60;2.80;;;21.70;99.90;;;;;;5051444;28;20793;-54
2023/09/29 08:59:52;;;;;;;3.90;2.80;;;21.70;99.90;;;;;;5059886;28;20965;-53
2023/09/29 09:02:18;;;;;;;4.70;2.90;;;21.70;99.90;;;;;;5059119;28;20451;-51
2023/09/29 09:04:47;;;;;;;3.37;2.27;;;21.60;99.90;;;;;;5059007;28;20983;-55
2023/09/29 09:07:15;;;;;;;6.60;2.33;;;21.70;99.90;;;;;;5056896;28;21017;-48
2023/09/29 09:09:47;;;;;;;4.13;2.33;;;21.70;99.90;;;;;;5060755;28;20452;-56
2023/09/29 09:12:14;;;;;;;2.87;2.57;;;21.70;99.90;;;;;;5057924;28;20451;-52
2023/09/29 09:14:41;;;;;;;5.20;3.60;;;21.70;99.90;;;;;;5058534;28;20463;-49
2023/09/29 09:17:08;;;;;;;3.13;2.30;;;21.60;99.90;;;;;;5057553;28;20459;-54
2023/09/29 09:19:43;;;;;;;4.10;2.43;;;21.70;99.90;;;;;;5058008;28;20493;-50
2023/09/29 09:22:16;;;;;;;2.80;2.50;;;21.70;99.90;;;;;;5062875;28;20455;-52
2023/09/29 09:24:42;;;;;;;3.10;2.60;;;21.70;99.90;;;;;;5062082;28;20973;-47
2023/09/29 09:27:09;;;;;;;3.50;2.90;;;21.70;99.90;;;;;;5059535;28;20484;-55
2023/09/29 09:29:41;;;;;;;3.80;3.00;;;21.60;99.90;;;;;;5063920;28;21630;-48
2023/09/29 09:32:10;;;;;;;3.30;3.10;;;21.60;99.90;;;;;;5060053;28;20894;-56
2023/09/29 09:34:37;;;;;;;5.77;2.70;;;21.70;99.90;;;;;;5061455;28;20459;-52
2023/09/29 09:37:06;;;;;;;4.23;2.90;;;21.70;99.90;;;;;;5055152;28;20515;-49
2023/09/29 09:39:35;;;;;;;6.60;2.60;;;21.70;99.90;;;;;;5058139;28;20461;-47
2023/09/29 09:42:04;;;;;;;2.70;2.43;;;21.60;99.90;;;;;;5057968;28;20463;-47
2023/09/29 09:44:32;;;;;;;6.30;2.47;;;21.60;99.90;;;;;;5057138;28;20459;-50
2023/09/29 09:47:00;;;;;;;10.13;2.87;;;21.70;99.90;;;;;;5059054;28;20476;-51
2023/09/29 09:49:37;;;;;;;5.20;2.90;;;21.70;99.90;;;;;;5062242;28;20462;-46
2023/09/29 09:52:08;;;;;;;2.40;2.20;;;21.60;99.90;;;;;;5059405;28;20462;-44
2023/09/29 09:54:44;;;;;;;3.00;2.40;;;21.70;99.90;;;;;;5059585;28;20949;-48
2023/09/29 09:57:13;;;;;;;3.33;2.53;;;21.70;99.90;;;;;;5058901;28;20537;-48
2023/09/29 09:59:43;;;;;;;2.50;2.30;;;21.60;99.90;;;;;;5057974;28;20565;-47
2023/09/29 10:02:11;;;;;;;2.90;2.60;;;21.70;99.90;;;;;;5056399;28;20449;-53
2023/09/29 10:04:39;;;;;;;2.60;2.40;;;21.70;99.90;;;;;;5059322;28;20463;-44
2023/09/29 10:07:07;;;;;;;2.80;2.30;;;21.70;99.90;;;;;;5056154;28;21013;-52
2023/09/29 10:09:46;;;;;;;3.27;2.23;;;21.70;99.90;;;;;;5059174;28;20488;-57
2023/09/29 10:12:27;;;;;;;4.10;2.90;;;21.80;99.90;;;;;;5054110;28;20461;-58
2023/09/29 10:14:54;;;;;;;6.20;2.93;;;21.60;99.90;;;;;;5059522;28;20484;-52
2023/09/29 10:17:21;;;;;;;2.70;2.40;;;21.70;99.90;;;;;;5057261;28;20927;-50
2023/09/29 10:19:51;;;;;;;5.17;2.60;;;21.70;99.90;;;;;;5058043;28;20463;-48
2023/09/29 10:22:28;;;;;;;3.60;2.43;;;21.70;99.90;;;;;;5056269;28;20459;-52
2023/09/29 10:24:59;;;;;;;3.80;2.67;;;21.70;99.90;;;;;;5057937;28;20470;-55
2023/09/29 10:27:28;;;;;;;4.00;2.40;;;21.70;99.90;;;;;;5057771;28;20950;-56
2023/09/29 10:30:13;;;;;;;2.80;2.47;;;21.70;99.90;;;;;;5056341;28;20816;-50
2023/09/29 10:32:39;;;;;;;3.07;2.87;;;21.70;99.90;;;;;;5059376;28;21278;-53
2023/09/29 10:35:11;;;;;;;4.23;3.13;;;21.70;99.90;;;;;;5057986;28;20812;-54
2023/09/29 10:37:41;;;;;;;3.17;2.87;;;21.70;99.90;;;;;;5059224;28;20555;-56
2023/09/29 10:40:22;;;;;;;5.03;2.80;;;21.70;99.90;;;;;;5057276;28;20588;-49
2023/09/29 10:42:54;;;;;;;3.23;2.90;;;21.80;99.90;;;;;;5057724;28;20628;-53
2023/09/29 10:45:25;;;;;;;3.10;2.80;;;21.90;99.90;;;;;;5057042;28;21129;-57
2023/09/29 10:47:53;;;;;;;6.53;3.10;;;21.70;99.90;;;;;;5058440;28;20456;-60
2023/09/29 10:50:20;;;;;;;4.13;3.20;;;21.80;99.90;;;;;;5055601;28;20555;-52
2023/09/29 10:52:47;;;;;;;4.10;3.10;;;21.80;99.90;;;;;;5057424;28;20979;-48
2023/09/29 10:55:15;;;;;;;5.73;3.00;;;21.70;99.90;;;;;;5054463;28;20959;-59
2023/09/29 10:57:43;;;;;;;3.30;2.97;;;21.80;99.90;;;;;;5054239;28;21014;-57
2023/09/29 11:00:11;;;;;;;4.50;3.00;;;21.80;99.90;;;;;;5056068;28;20460;-52
2023/09/29 11:02:38;;;;;;;3.80;3.50;;;21.80;99.90;;;;;;5056396;28;20982;-55
2023/09/29 11:05:10;;;;;;;3.50;3.03;;;21.80;99.90;;;;;;5054685;28;20959;-58
2023/09/29 11:07:46;;;;;;;6.37;3.10;;;21.80;99.90;;;;;;5048688;28;20464;-44
2023/09/29 11:10:17;;;;;;;4.73;2.93;;;21.90;99.90;;;;;;5054456;28;20451;-58
2023/09/29 11:12:46;;;;;;;4.20;2.90;;;21.80;99.90;;;;;;5057511;28;20536;-57
2023/09/29 11:15:14;;;;;;;6.23;2.90;;;21.90;99.90;;;;;;5053108;28;20554;-51
2023/09/29 11:17:45;;;;;;;4.33;3.43;;;22.00;99.90;;;;;;5057911;28;20460;-53
2023/09/29 11:20:25;;;;;;;6.30;3.00;;;21.80;99.90;;;;;;5056031;28;21057;-59
2023/09/29 11:23:02;;;;;;;3.50;3.07;;;21.90;99.90;;;;;;5053689;28;21148;-55
2023/09/29 11:25:31;;;;;;;3.67;3.37;;;21.90;99.90;;;;;;5058043;28;20455;-49
2023/09/29 11:27:57;;;;;;;4.23;3.73;;;21.90;99.90;;;;;;5057341;28;20621;-53
2023/09/29 11:30:25;;;;;;;6.10;3.50;;;22.00;99.90;;;;;;5055780;28;20478;-54
2023/09/29 11:32:52;;;;;;;7.17;3.03;;;21.90;99.90;;;;;;5055481;28;20895;-52
2023/09/29 11:35:21;;;;;;;4.40;3.27;;;21.90;99.90;;;;;;5055816;28;20907;-56
2023/09/29 11:37:48;;;;;;;4.57;2.63;;;21.90;99.90;;;;;;5056757;28;20979;-64
2023/09/29 11:40:16;;;;;;;2.97;2.50;;;22.00;99.90;;;;;;5056608;28;20459;-64
2023/09/29 11:42:45;;;;;;;10.20;4.13;;;21.90;99.90;;;;;;5056939;28;20458;-56
2023/09/29 11:45:12;;;;;;;4.23;2.70;;;22.00;99.90;;;;;;5051723;28;20844;-62
2023/09/29 11:47:40;;;;;;;5.57;2.87;;;22.00;99.90;;;;;;5053462;28;20911;-45
2023/09/29 11:50:09;;;;;;;5.20;2.90;;;22.10;99.90;;;;;;5058122;28;20470;-55
2023/09/29 11:52:35;;;;;;;4.20;2.73;;;22.10;99.90;;;;;;5054975;28;20472;-57
2023/09/29 11:55:05;;;;;;;4.00;3.00;;;22.10;99.90;;;;;;5050446;28;20491;-55
2023/09/29 11:57:32;;;;;;;3.97;3.37;;;22.10;99.90;;;;;;5052595;28;20469;-54
2023/09/29 12:00:00;;;;;;;3.20;2.90;;;22.20;99.90;;;;;;5052042;28;21181;-50
2023/09/29 12:02:28;;;;;;;5.90;2.97;;;22.20;99.90;;;;;;5056202;28;20467;-47
2023/09/29 12:04:54;;;;;;;5.30;3.40;;;22.30;99.90;;;;;;5057629;28;20456;-54
2023/09/29 12:07:22;;;;;;;5.00;4.00;;;22.20;99.90;;;;;;5049220;28;20480;-52
2023/09/29 12:09:48;;;;;;;3.70;3.07;;;22.20;99.90;;;;;;5057642;28;20610;-59
2023/09/29 12:12:15;;;;;;;5.13;2.90;;;22.20;99.90;;;;;;5052342;28;20460;-65
2023/09/29 12:14:42;;;;;;;4.53;3.30;;;22.30;99.90;;;;;;5052913;28;20542;-50
2023/09/29 12:17:10;;;;;;;4.53;2.80;;;22.40;99.90;;;;;;5055210;28;20960;-50
2023/09/29 12:19:37;;;;;;;6.20;3.60;;;22.40;99.90;;;;;;5052222;28;21074;-59
2023/09/29 12:22:05;;;;;;;5.37;3.00;;;22.50;99.90;;;;;;5051795;28;20482;-60
2023/09/29 12:24:32;;;;;;;6.00;3.50;;;22.40;99.90;;;;;;5054999;28;20808;-56
2023/09/29 12:26:59;;;;;;;6.63;3.70;;;22.40;99.90;;;;;;5053255;28;20455;-60
2023/09/29 12:29:25;;;;;;;5.37;3.17;;;22.50;99.90;;;;;;5055693;28;20481;-56
2023/09/29 12:31:52;;;;;;;5.27;3.50;;;22.50;99.90;;;;;;5053735;28;21092;-56
2023/09/29 12:34:20;;;;;;;6.10;3.90;;;22.40;99.90;;;;;;5052892;28;20452;-49
2023/09/29 12:36:47;;;;;;;7.73;3.87;;;22.50;99.90;;;;;;5055910;28;20495;-48
2023/09/29 12:39:14;;;;;;;6.17;3.50;;;22.50;99.90;;;;;;5056653;28;20476;-55
2023/09/29 12:41:42;;;;;;;6.27;3.90;;;22.50;99.90;;;;;;5055099;28;20460;-53
2023/09/29 12:44:10;;;;;;;5.67;4.10;;;22.50;99.90;;;;;;5054689;28;20462;-47
2023/09/29 12:46:38;;;;;;;8.70;4.50;;;22.50;99.90;;;;;;5050823;28;21046;-51
2023/09/29 12:49:04;;;;;;;8.17;3.87;;;22.60;99.90;;;;;;5055245;28;20481;-52
2023/09/29 12:51:33;;;;;;;14.53;4.23;;;22.50;99.90;;;;;;5056162;28;20518;-46